sensor_id;sensor_type;location;lat;lon;timestamp;pressure;altitude;pressure_sealevel;temperature;humidity
33075;BME280;19433;51.292;6.868;2022-08-06T00:02:13;101310.59;;;12.71;95.29
33075;BME280;19433;51.292;6.868;2022-08-06T00:04:38;101311.97;;;12.60;96.24
33075;BME280;19433;51.292;6.868;2022-08-06T00:07:04;101313.59;;;12.54;97.16
33075;BME280;19433;51.292;6.868;2022-08-06T00:09:29;101320.63;;;12.50;98.11
33075;BME280;19433;51.292;6.868;2022-08-06T00:11:59;101310.63;;;12.35;99.74
33075;BME280;19433;51.292;6.868;2022-08-06T00:14:26;101315.22;;;12.27;100.00
33075;BME280;19433;51.292;6.868;2022-08-06T00:16:52;101326.78;;;12.31;99.66
33075;BME280;19433;51.292;6.868;2022-08-06T00:19:17;101332.22;;;12.24;100.00
33075;BME280;19433;51.292;6.868;2022-08-06T00:21:43;101327.75;;;12.23;100.00
33075;BME280;19433;51.292;6.868;2022-08-06T00:24:08;101322.91;;;12.11;100.00
33075;BME280;19433;51.292;6.868;2022-08-06T00:26:33;101328.63;;;12.09;100.00
33075;BME280;19433;51.292;6.868;2022-08-06T00:28:59;101326.66;;;12.03;100.00
33075;BME280;19433;51.292;6.868;2022-08-06T00:31:24;101324.66;;;11.97;100.00
33075;BME280;19433;51.292;6.868;2022-08-06T00:33:49;101328.22;;;11.91;100.00
33075;BME280;19433;51.292;6.868;2022-08-06T00:36:15;101331.16;;;11.89;100.00
33075;BME280;19433;51.292;6.868;2022-08-06T00:38:40;101341.44;;;11.95;100.00
33075;BME280;19433;51.292;6.868;2022-08-06T00:41:05;101328.84;;;11.93;100.00
33075;BME280;19433;51.292;6.868;2022-08-06T00:43:31;101329.03;;;11.77;100.00
33075;BME280;19433;51.292;6.868;2022-08-06T00:45:56;101321.50;;;11.71;100.00
33075;BME280;19433;51.292;6.868;2022-08-06T00:48:22;101328.44;;;11.67;100.00
33075;BME280;19433;51.292;6.868;2022-08-06T00:50:47;101336.38;;;11.70;100.00
33075;BME280;19433;51.292;6.868;2022-08-06T00:53:12;101346.97;;;11.66;100.00
33075;BME280;19433;51.292;6.868;2022-08-06T00:55:38;101330.47;;;11.58;100.00
33075;BME280;19433;51.292;6.868;2022-08-06T00:58:04;101343.16;;;11.52;100.00
33075;BME280;19433;51.292;6.868;2022-08-06T01:00:31;101341.13;;;11.46;100.00
33075;BME280;19433;51.292;6.868;2022-08-06T01:02:56;101332.06;;;11.52;100.00
33075;BME280;19433;51.292;6.868;2022-08-06T01:05:21;101333.22;;;11.58;100.00
33075;BME280;19433;51.292;6.868;2022-08-06T01:07:47;101346.09;;;11.51;100.00
33075;BME280;19433;51.292;6.868;2022-08-06T01:10:12;101336.91;;;11.36;100.00
33075;BME280;19433;51.292;6.868;2022-08-06T01:12:37;101349.34;;;11.40;100.00
33075;BME280;19433;51.292;6.868;2022-08-06T01:15:04;101350.88;;;11.42;100.00
33075;BME280;19433;51.292;6.868;2022-08-06T01:17:44;101356.03;;;11.45;100.00
33075;BME280;19433;51.292;6.868;2022-08-06T01:20:39;101355.97;;;11.31;100.00
33075;BME280;19433;51.292;6.868;2022-08-06T01:28:45;101361.44;;;11.01;100.00
33075;BME280;19433;51.292;6.868;2022-08-06T01:31:16;101350.09;;;10.96;100.00
33075;BME280;19433;51.292;6.868;2022-08-06T01:33:54;101362.19;;;10.95;100.00
33075;BME280;19433;51.292;6.868;2022-08-06T01:36:33;101371.22;;;11.12;100.00
33075;BME280;19433;51.292;6.868;2022-08-06T01:39:01;101365.81;;;10.96;100.00
33075;BME280;19433;51.292;6.868;2022-08-06T01:41:30;101367.22;;;10.91;100.00
33075;BME280;19433;51.292;6.868;2022-08-06T01:44:05;101367.59;;;10.88;100.00
33075;BME280;19433;51.292;6.868;2022-08-06T01:46:33;101365.94;;;10.79;100.00
33075;BME280;19433;51.292;6.868;2022-08-06T01:49:00;101371.97;;;10.83;100.00
33075;BME280;19433;51.292;6.868;2022-08-06T01:51:26;101378.59;;;10.74;100.00
33075;BME280;19433;51.292;6.868;2022-08-06T01:53:53;101380.19;;;10.68;100.00
33075;BME280;19433;51.292;6.868;2022-08-06T01:56:21;101375.22;;;10.64;100.00
33075;BME280;19433;51.292;6.868;2022-08-06T01:58:49;101383.31;;;10.65;100.00
33075;BME280;19433;51.292;6.868;2022-08-06T02:01:17;101381.78;;;10.85;100.00
33075;BME280;19433;51.292;6.868;2022-08-06T02:03:46;101387.75;;;10.74;100.00
33075;BME280;19433;51.292;6.868;2022-08-06T02:06:17;101384.84;;;10.90;100.00
33075;BME280;19433;51.292;6.868;2022-08-06T02:08:44;101379.59;;;10.81;100.00
33075;BME280;19433;51.292;6.868;2022-08-06T02:11:11;101376.59;;;10.60;100.00
33075;BME280;19433;51.292;6.868;2022-08-06T02:13:37;101389.19;;;10.62;100.00
33075;BME280;19433;51.292;6.868;2022-08-06T02:16:05;101393.16;;;10.37;100.00
33075;BME280;19433;51.292;6.868;2022-08-06T02:18:35;101393.53;;;10.34;100.00
33075;BME280;19433;51.292;6.868;2022-08-06T02:21:06;101393.44;;;10.50;100.00
33075;BME280;19433;51.292;6.868;2022-08-06T02:23:32;101393.84;;;10.39;100.00
33075;BME280;19433;51.292;6.868;2022-08-06T02:25:58;101388.69;;;10.36;100.00
33075;BME280;19433;51.292;6.868;2022-08-06T02:28:26;101394.03;;;10.37;100.00
33075;BME280;19433;51.292;6.868;2022-08-06T02:30:55;101399.66;;;10.44;100.00
33075;BME280;19433;51.292;6.868;2022-08-06T02:33:21;101391.25;;;10.37;100.00
33075;BME280;19433;51.292;6.868;2022-08-06T02:35:50;101393.38;;;10.27;100.00
33075;BME280;19433;51.292;6.868;2022-08-06T02:38:23;101388.03;;;10.17;100.00
33075;BME280;19433;51.292;6.868;2022-08-06T02:40:55;101388.22;;;10.16;100.00
33075;BME280;19433;51.292;6.868;2022-08-06T02:43:30;101382.88;;;10.14;100.00
33075;BME280;19433;51.292;6.868;2022-08-06T02:48:53;101403.75;;;10.09;100.00
33075;BME280;19433;51.292;6.868;2022-08-06T02:51:25;101411.53;;;10.13;100.00
33075;BME280;19433;51.292;6.868;2022-08-06T02:54:03;101406.53;;;10.09;100.00
33075;BME280;19433;51.292;6.868;2022-08-06T02:56:31;101399.47;;;10.06;100.00
33075;BME280;19433;51.292;6.868;2022-08-06T02:58:58;101400.34;;;10.07;100.00
33075;BME280;19433;51.292;6.868;2022-08-06T03:01:28;101404.44;;;10.11;100.00
33075;BME280;19433;51.292;6.868;2022-08-06T03:03:57;101401.56;;;9.96;100.00
33075;BME280;19433;51.292;6.868;2022-08-06T03:06:24;101405.53;;;10.02;100.00
33075;BME280;19433;51.292;6.868;2022-08-06T03:08:53;101411.19;;;10.08;100.00
33075;BME280;19433;51.292;6.868;2022-08-06T03:11:19;101411.22;;;10.00;100.00
33075;BME280;19433;51.292;6.868;2022-08-06T03:13:46;101421.41;;;10.00;100.00
33075;BME280;19433;51.292;6.868;2022-08-06T03:16:12;101426.59;;;10.03;100.00
33075;BME280;19433;51.292;6.868;2022-08-06T03:18:38;101430.91;;;9.97;100.00
33075;BME280;19433;51.292;6.868;2022-08-06T03:21:07;101421.06;;;9.95;100.00
33075;BME280;19433;51.292;6.868;2022-08-06T03:23:34;101419.56;;;9.92;100.00
33075;BME280;19433;51.292;6.868;2022-08-06T03:26:00;101416.59;;;9.94;100.00
33075;BME280;19433;51.292;6.868;2022-08-06T03:28:27;101425.41;;;9.89;100.00
33075;BME280;19433;51.292;6.868;2022-08-06T03:30:53;101416.78;;;9.84;100.00
33075;BME280;19433;51.292;6.868;2022-08-06T03:33:19;101424.81;;;10.10;100.00
33075;BME280;19433;51.292;6.868;2022-08-06T03:35:45;101417.38;;;10.10;100.00
33075;BME280;19433;51.292;6.868;2022-08-06T03:38:13;101424.16;;;10.00;100.00
33075;BME280;19433;51.292;6.868;2022-08-06T03:40:42;101418.06;;;10.12;100.00
33075;BME280;19433;51.292;6.868;2022-08-06T03:43:08;101432.72;;;10.29;100.00
33075;BME280;19433;51.292;6.868;2022-08-06T03:45:37;101432.22;;;10.17;100.00
33075;BME280;19433;51.292;6.868;2022-08-06T03:48:05;101431.94;;;10.04;100.00
33075;BME280;19433;51.292;6.868;2022-08-06T03:50:40;101423.66;;;9.96;100.00
33075;BME280;19433;51.292;6.868;2022-08-06T03:53:10;101424.63;;;10.11;100.00
33075;BME280;19433;51.292;6.868;2022-08-06T03:55:38;101438.28;;;10.13;100.00
33075;BME280;19433;51.292;6.868;2022-08-06T03:58:06;101434.34;;;10.07;100.00
33075;BME280;19433;51.292;6.868;2022-08-06T04:00:36;101425.41;;;9.89;100.00
33075;BME280;19433;51.292;6.868;2022-08-06T04:03:04;101439.91;;;9.91;100.00
33075;BME280;19433;51.292;6.868;2022-08-06T04:05:31;101448.84;;;10.01;100.00
33075;BME280;19433;51.292;6.868;2022-08-06T04:08:00;101450.59;;;9.78;100.00
33075;BME280;19433;51.292;6.868;2022-08-06T04:10:32;101449.59;;;9.71;100.00
33075;BME280;19433;51.292;6.868;2022-08-06T04:12:59;101447.19;;;9.76;100.00
33075;BME280;19433;51.292;6.868;2022-08-06T04:15:24;101447.53;;;9.73;100.00
33075;BME280;19433;51.292;6.868;2022-08-06T04:17:51;101434.97;;;9.62;100.00
33075;BME280;19433;51.292;6.868;2022-08-06T04:20:20;101445.28;;;9.76;100.00
33075;BME280;19433;51.292;6.868;2022-08-06T04:22:46;101444.59;;;9.66;100.00
33075;BME280;19433;51.292;6.868;2022-08-06T04:25:12;101447.53;;;9.65;100.00
33075;BME280;19433;51.292;6.868;2022-08-06T04:27:39;101454.78;;;9.74;100.00
33075;BME280;19433;51.292;6.868;2022-08-06T04:30:06;101460.47;;;9.72;100.00
33075;BME280;19433;51.292;6.868;2022-08-06T04:32:32;101452.88;;;9.66;100.00
33075;BME280;19433;51.292;6.868;2022-08-06T04:35:04;101455.81;;;9.65;100.00
33075;BME280;19433;51.292;6.868;2022-08-06T04:37:30;101457.72;;;9.72;100.00
33075;BME280;19433;51.292;6.868;2022-08-06T04:39:57;101457.53;;;9.66;100.00
33075;BME280;19433;51.292;6.868;2022-08-06T04:42:23;101447.69;;;9.63;100.00
33075;BME280;19433;51.292;6.868;2022-08-06T04:44:49;101460.47;;;9.64;100.00
33075;BME280;19433;51.292;6.868;2022-08-06T04:47:16;101466.66;;;9.66;100.00
33075;BME280;19433;51.292;6.868;2022-08-06T04:49:41;101471.13;;;9.83;100.00
33075;BME280;19433;51.292;6.868;2022-08-06T04:52:06;101478.56;;;9.91;100.00
33075;BME280;19433;51.292;6.868;2022-08-06T04:54:32;101489.22;;;9.94;100.00
33075;BME280;19433;51.292;6.868;2022-08-06T04:56:57;101476.09;;;10.04;100.00
33075;BME280;19433;51.292;6.868;2022-08-06T04:59:22;101482.66;;;9.95;100.00
33075;BME280;19433;51.292;6.868;2022-08-06T05:01:48;101484.56;;;9.95;100.00
33075;BME280;19433;51.292;6.868;2022-08-06T05:04:13;101495.09;;;9.99;100.00
33075;BME280;19433;51.292;6.868;2022-08-06T05:06:55;101488.88;;;10.05;100.00
33075;BME280;19433;51.292;6.868;2022-08-06T05:09:25;101502.28;;;10.16;100.00
33075;BME280;19433;51.292;6.868;2022-08-06T05:11:56;101490.59;;;10.23;100.00
33075;BME280;19433;51.292;6.868;2022-08-06T05:14:38;101488.69;;;10.23;100.00
33075;BME280;19433;51.292;6.868;2022-08-06T05:17:06;101490.53;;;10.39;100.00
33075;BME280;19433;51.292;6.868;2022-08-06T05:19:38;101494.69;;;10.35;100.00
33075;BME280;19433;51.292;6.868;2022-08-06T05:22:06;101510.84;;;10.46;100.00
33075;BME280;19433;51.292;6.868;2022-08-06T05:24:33;101508.25;;;10.52;100.00
33075;BME280;19433;51.292;6.868;2022-08-06T05:26:59;101493.41;;;10.53;100.00
33075;BME280;19433;51.292;6.868;2022-08-06T05:29:24;101502.50;;;10.62;100.00
33075;BME280;19433;51.292;6.868;2022-08-06T05:31:57;101505.44;;;10.69;100.00
33075;BME280;19433;51.292;6.868;2022-08-06T05:34:23;101515.34;;;10.86;100.00
33075;BME280;19433;51.292;6.868;2022-08-06T05:36:49;101510.53;;;11.11;100.00
33075;BME280;19433;51.292;6.868;2022-08-06T05:39:14;101519.28;;;11.22;100.00
33075;BME280;19433;51.292;6.868;2022-08-06T05:41:39;101519.09;;;11.24;100.00
33075;BME280;19433;51.292;6.868;2022-08-06T05:44:06;101511.16;;;11.21;100.00
33075;BME280;19433;51.292;6.868;2022-08-06T05:46:34;101520.63;;;11.26;100.00
33075;BME280;19433;51.292;6.868;2022-08-06T05:49:08;101528.50;;;11.38;100.00
33075;BME280;19433;51.292;6.868;2022-08-06T05:51:40;101533.97;;;11.46;100.00
33075;BME280;19433;51.292;6.868;2022-08-06T05:54:16;101533.38;;;11.58;100.00
33075;BME280;19433;51.292;6.868;2022-08-06T05:56:44;101527.84;;;11.58;100.00
33075;BME280;19433;51.292;6.868;2022-08-06T05:59:21;101523.25;;;11.66;100.00
33075;BME280;19433;51.292;6.868;2022-08-06T06:01:49;101527.69;;;11.75;100.00
33075;BME280;19433;51.292;6.868;2022-08-06T06:04:14;101536.31;;;11.80;100.00
33075;BME280;19433;51.292;6.868;2022-08-06T06:06:41;101524.00;;;11.82;100.00
33075;BME280;19433;51.292;6.868;2022-08-06T06:09:06;101538.75;;;11.97;100.00
33075;BME280;19433;51.292;6.868;2022-08-06T06:11:32;101533.59;;;12.09;100.00
33075;BME280;19433;51.292;6.868;2022-08-06T06:13:59;101529.06;;;12.46;100.00
33075;BME280;19433;51.292;6.868;2022-08-06T06:16:28;101535.66;;;12.45;100.00
33075;BME280;19433;51.292;6.868;2022-08-06T06:24:37;101540.81;;;12.62;100.00
33075;BME280;19433;51.292;6.868;2022-08-06T06:32:38;101540.56;;;13.08;100.00
33075;BME280;19433;51.292;6.868;2022-08-06T06:35:12;101549.00;;;13.15;100.00
33075;BME280;19433;51.292;6.868;2022-08-06T06:37:56;101550.91;;;13.29;100.00
33075;BME280;19433;51.292;6.868;2022-08-06T06:43:21;101543.09;;;13.60;100.00
33075;BME280;19433;51.292;6.868;2022-08-06T06:45:59;101549.03;;;14.00;99.69
33075;BME280;19433;51.292;6.868;2022-08-06T06:48:33;101556.44;;;14.21;100.00
33075;BME280;19433;51.292;6.868;2022-08-06T06:51:05;101557.72;;;14.74;95.90
33075;BME280;19433;51.292;6.868;2022-08-06T06:53:34;101556.19;;;15.73;93.11
33075;BME280;19433;51.292;6.868;2022-08-06T06:56:01;101562.25;;;17.14;87.75
33075;BME280;19433;51.292;6.868;2022-08-06T06:58:40;101572.00;;;18.37;80.82
33075;BME280;19433;51.292;6.868;2022-08-06T07:01:11;101587.34;;;18.96;72.94
33075;BME280;19433;51.292;6.868;2022-08-06T07:03:38;101583.94;;;19.12;72.08
33075;BME280;19433;51.292;6.868;2022-08-06T07:06:06;101586.00;;;20.13;68.24
33075;BME280;19433;51.292;6.868;2022-08-06T07:08:35;101583.78;;;20.92;66.23
33075;BME280;19433;51.292;6.868;2022-08-06T07:11:06;101595.59;;;21.86;63.30
33075;BME280;19433;51.292;6.868;2022-08-06T07:13:32;101592.31;;;22.84;56.22
33075;BME280;19433;51.292;6.868;2022-08-06T07:15:58;101600.09;;;23.15;55.80
33075;BME280;19433;51.292;6.868;2022-08-06T07:18:25;101604.44;;;23.45;53.86
33075;BME280;19433;51.292;6.868;2022-08-06T07:20:52;101609.94;;;23.35;54.14
33075;BME280;19433;51.292;6.868;2022-08-06T07:23:18;101609.28;;;23.71;50.13
33075;BME280;19433;51.292;6.868;2022-08-06T07:25:46;101613.75;;;23.45;51.96
33075;BME280;19433;51.292;6.868;2022-08-06T07:28:14;101615.94;;;23.60;51.99
33075;BME280;19433;51.292;6.868;2022-08-06T07:30:41;101611.53;;;23.47;50.15
33075;BME280;19433;51.292;6.868;2022-08-06T07:33:09;101610.25;;;23.38;51.81
33075;BME280;19433;51.292;6.868;2022-08-06T07:35:36;101612.91;;;23.45;48.88
33075;BME280;19433;51.292;6.868;2022-08-06T07:38:05;101612.59;;;23.63;49.35
33075;BME280;19433;51.292;6.868;2022-08-06T07:40:36;101620.22;;;24.16;45.82
33075;BME280;19433;51.292;6.868;2022-08-06T07:43:13;101620.13;;;23.58;46.56
33075;BME280;19433;51.292;6.868;2022-08-06T07:45:40;101618.78;;;23.43;50.31
33075;BME280;19433;51.292;6.868;2022-08-06T07:48:08;101619.78;;;23.98;47.45
33075;BME280;19433;51.292;6.868;2022-08-06T07:50:35;101632.09;;;24.40;44.03
33075;BME280;19433;51.292;6.868;2022-08-06T07:53:01;101624.59;;;24.56;45.47
33075;BME280;19433;51.292;6.868;2022-08-06T07:55:27;101618.97;;;24.61;45.32
33075;BME280;19433;51.292;6.868;2022-08-06T07:57:54;101622.91;;;24.55;42.44
33075;BME280;19433;51.292;6.868;2022-08-06T08:00:22;101631.81;;;24.74;43.15
33075;BME280;19433;51.292;6.868;2022-08-06T08:02:49;101632.56;;;24.59;42.65
33075;BME280;19433;51.292;6.868;2022-08-06T08:05:36;101628.03;;;24.63;43.55
33075;BME280;19433;51.292;6.868;2022-08-06T08:08:21;101628.88;;;24.59;45.22
33075;BME280;19433;51.292;6.868;2022-08-06T08:10:47;101630.13;;;24.73;42.08
33075;BME280;19433;51.292;6.868;2022-08-06T08:13:13;101625.47;;;24.94;41.15
33075;BME280;19433;51.292;6.868;2022-08-06T08:15:44;101622.41;;;25.52;39.58
33075;BME280;19433;51.292;6.868;2022-08-06T08:18:09;101625.34;;;25.15;40.36
33075;BME280;19433;51.292;6.868;2022-08-06T08:20:38;101621.78;;;25.40;38.83
33075;BME280;19433;51.292;6.868;2022-08-06T08:23:05;101628.75;;;25.65;37.04
33075;BME280;19433;51.292;6.868;2022-08-06T08:25:34;101623.78;;;26.07;35.66
33075;BME280;19433;51.292;6.868;2022-08-06T08:28:00;101624.13;;;26.77;35.76
33075;BME280;19433;51.292;6.868;2022-08-06T08:30:25;101626.09;;;27.17;33.64
33075;BME280;19433;51.292;6.868;2022-08-06T08:32:51;101625.50;;;27.20;32.30
33075;BME280;19433;51.292;6.868;2022-08-06T08:35:16;101628.59;;;27.34;32.44
33075;BME280;19433;51.292;6.868;2022-08-06T08:37:42;101628.09;;;27.16;33.86
33075;BME280;19433;51.292;6.868;2022-08-06T08:40:08;101629.53;;;26.99;32.93
33075;BME280;19433;51.292;6.868;2022-08-06T08:42:45;101632.53;;;27.38;30.04
33075;BME280;19433;51.292;6.868;2022-08-06T08:45:12;101634.53;;;27.42;32.07
33075;BME280;19433;51.292;6.868;2022-08-06T08:47:41;101632.06;;;26.65;30.88
33075;BME280;19433;51.292;6.868;2022-08-06T08:50:09;101632.03;;;25.46;32.09
33075;BME280;19433;51.292;6.868;2022-08-06T08:52:37;101631.25;;;25.61;33.00
33075;BME280;19433;51.292;6.868;2022-08-06T08:55:05;101619.00;;;25.45;34.05
33075;BME280;19433;51.292;6.868;2022-08-06T08:57:32;101627.06;;;25.74;33.92
33075;BME280;19433;51.292;6.868;2022-08-06T09:00:00;101626.66;;;25.50;32.89
33075;BME280;19433;51.292;6.868;2022-08-06T09:02:27;101623.84;;;26.63;32.38
33075;BME280;19433;51.292;6.868;2022-08-06T09:04:53;101632.03;;;26.24;30.83
33075;BME280;19433;51.292;6.868;2022-08-06T09:07:19;101620.81;;;25.14;32.65
33075;BME280;19433;51.292;6.868;2022-08-06T09:09:45;101629.78;;;25.01;33.97
33075;BME280;19433;51.292;6.868;2022-08-06T09:12:10;101638.19;;;25.33;35.37
33075;BME280;19433;51.292;6.868;2022-08-06T09:14:36;101630.31;;;25.45;34.64
33075;BME280;19433;51.292;6.868;2022-08-06T09:17:03;101631.44;;;26.22;33.46
33075;BME280;19433;51.292;6.868;2022-08-06T09:19:29;101638.50;;;26.04;30.95
33075;BME280;19433;51.292;6.868;2022-08-06T09:21:56;101641.88;;;26.01;32.37
33075;BME280;19433;51.292;6.868;2022-08-06T09:24:22;101633.94;;;26.03;31.84
33075;BME280;19433;51.292;6.868;2022-08-06T09:27:10;101629.34;;;25.77;32.78
33075;BME280;19433;51.292;6.868;2022-08-06T09:29:47;101638.13;;;24.91;33.77
33075;BME280;19433;51.292;6.868;2022-08-06T09:32:13;101628.75;;;24.80;34.02
33075;BME280;19433;51.292;6.868;2022-08-06T09:34:39;101630.84;;;24.95;34.26
33075;BME280;19433;51.292;6.868;2022-08-06T09:37:05;101622.34;;;25.32;33.30
33075;BME280;19433;51.292;6.868;2022-08-06T09:39:38;101636.59;;;25.57;33.70
33075;BME280;19433;51.292;6.868;2022-08-06T09:42:07;101636.19;;;24.54;35.16
33075;BME280;19433;51.292;6.868;2022-08-06T09:44:33;101627.22;;;23.82;36.84
33075;BME280;19433;51.292;6.868;2022-08-06T09:46:59;101623.50;;;24.03;38.75
33075;BME280;19433;51.292;6.868;2022-08-06T09:49:25;101631.50;;;25.02;35.19
33075;BME280;19433;51.292;6.868;2022-08-06T09:52:12;101635.13;;;26.12;34.81
33075;BME280;19433;51.292;6.868;2022-08-06T09:54:39;101629.22;;;26.34;33.54
33075;BME280;19433;51.292;6.868;2022-08-06T09:57:04;101633.50;;;26.72;32.12
33075;BME280;19433;51.292;6.868;2022-08-06T09:59:41;101636.88;;;27.10;31.46
33075;BME280;19433;51.292;6.868;2022-08-06T10:02:15;101638.00;;;26.78;33.71
33075;BME280;19433;51.292;6.868;2022-08-06T10:04:43;101634.53;;;26.05;33.42
33075;BME280;19433;51.292;6.868;2022-08-06T10:07:08;101641.25;;;25.27;33.54
33075;BME280;19433;51.292;6.868;2022-08-06T10:09:34;101644.53;;;24.76;33.78
33075;BME280;19433;51.292;6.868;2022-08-06T10:12:16;101637.84;;;23.75;37.89
33075;BME280;19433;51.292;6.868;2022-08-06T10:14:42;101639.69;;;24.13;36.49
33075;BME280;19433;51.292;6.868;2022-08-06T10:17:12;101635.41;;;24.64;34.57
33075;BME280;19433;51.292;6.868;2022-08-06T10:19:41;101638.13;;;24.91;34.62
33075;BME280;19433;51.292;6.868;2022-08-06T10:22:11;101639.81;;;25.24;32.69
33075;BME280;19433;51.292;6.868;2022-08-06T10:24:41;101632.47;;;25.75;33.37
33075;BME280;19433;51.292;6.868;2022-08-06T10:27:09;101639.13;;;26.32;33.01
33075;BME280;19433;51.292;6.868;2022-08-06T10:29:39;101633.44;;;26.21;32.03
33075;BME280;19433;51.292;6.868;2022-08-06T10:32:14;101639.53;;;25.83;30.99
33075;BME280;19433;51.292;6.868;2022-08-06T10:34:40;101637.56;;;25.83;33.19
33075;BME280;19433;51.292;6.868;2022-08-06T10:37:08;101632.75;;;25.84;32.69
33075;BME280;19433;51.292;6.868;2022-08-06T10:39:36;101630.59;;;25.44;34.06
33075;BME280;19433;51.292;6.868;2022-08-06T10:42:05;101627.41;;;24.93;33.98
33075;BME280;19433;51.292;6.868;2022-08-06T10:44:32;101623.25;;;25.48;36.69
33075;BME280;19433;51.292;6.868;2022-08-06T10:46:58;101629.22;;;26.75;34.31
33075;BME280;19433;51.292;6.868;2022-08-06T10:49:26;101625.56;;;27.00;29.62
33075;BME280;19433;51.292;6.868;2022-08-06T10:51:52;101624.75;;;27.79;30.35
33075;BME280;19433;51.292;6.868;2022-08-06T10:54:18;101622.16;;;26.57;30.04
33075;BME280;19433;51.292;6.868;2022-08-06T10:56:47;101617.50;;;25.90;32.40
33075;BME280;19433;51.292;6.868;2022-08-06T10:59:13;101609.59;;;26.07;32.15
33075;BME280;19433;51.292;6.868;2022-08-06T11:04:54;101618.31;;;28.56;30.46
33075;BME280;19433;51.292;6.868;2022-08-06T11:15:52;101608.25;;;26.30;28.77
33075;BME280;19433;51.292;6.868;2022-08-06T11:18:17;101599.47;;;26.37;32.15
33075;BME280;19433;51.292;6.868;2022-08-06T11:20:47;101605.44;;;26.66;34.19
33075;BME280;19433;51.292;6.868;2022-08-06T11:25:43;101597.16;;;27.15;31.27
33075;BME280;19433;51.292;6.868;2022-08-06T11:28:13;101598.91;;;26.60;30.12
33075;BME280;19433;51.292;6.868;2022-08-06T11:30:44;101603.09;;;26.17;30.02
33075;BME280;19433;51.292;6.868;2022-08-06T11:33:10;101606.53;;;27.05;30.91
33075;BME280;19433;51.292;6.868;2022-08-06T11:38:04;101600.88;;;26.59;29.24
33075;BME280;19433;51.292;6.868;2022-08-06T11:40:55;101596.75;;;25.12;30.98
33075;BME280;19433;51.292;6.868;2022-08-06T11:51:42;101592.63;;;24.87;33.29
33075;BME280;19433;51.292;6.868;2022-08-06T11:54:24;101595.06;;;25.63;32.69
33075;BME280;19433;51.292;6.868;2022-08-06T12:02:00;101602.59;;;24.95;33.29
33075;BME280;19433;51.292;6.868;2022-08-06T12:07:16;101594.41;;;24.30;35.84
33075;BME280;19433;51.292;6.868;2022-08-06T12:09:43;101582.91;;;24.09;35.66
33075;BME280;19433;51.292;6.868;2022-08-06T12:14:51;101579.88;;;25.27;33.29
33075;BME280;19433;51.292;6.868;2022-08-06T12:17:21;101581.38;;;25.45;34.00
33075;BME280;19433;51.292;6.868;2022-08-06T12:19:49;101583.28;;;25.29;32.74
33075;BME280;19433;51.292;6.868;2022-08-06T12:22:17;101585.56;;;24.90;32.74
33075;BME280;19433;51.292;6.868;2022-08-06T12:24:43;101581.66;;;24.96;36.61
33075;BME280;19433;51.292;6.868;2022-08-06T12:27:12;101574.13;;;25.12;36.77
33075;BME280;19433;51.292;6.868;2022-08-06T12:29:38;101571.31;;;24.38;34.27
33075;BME280;19433;51.292;6.868;2022-08-06T12:34:50;101572.69;;;25.04;36.14
33075;BME280;19433;51.292;6.868;2022-08-06T12:37:16;101577.59;;;24.82;34.79
33075;BME280;19433;51.292;6.868;2022-08-06T12:39:42;101569.84;;;24.67;33.89
33075;BME280;19433;51.292;6.868;2022-08-06T12:42:27;101571.59;;;24.73;36.81
33075;BME280;19433;51.292;6.868;2022-08-06T12:44:52;101563.56;;;24.60;33.14
33075;BME280;19433;51.292;6.868;2022-08-06T12:47:19;101569.13;;;24.18;32.72
33075;BME280;19433;51.292;6.868;2022-08-06T12:49:45;101556.09;;;23.85;37.66
33075;BME280;19433;51.292;6.868;2022-08-06T12:52:15;101558.25;;;23.73;37.29
33075;BME280;19433;51.292;6.868;2022-08-06T12:54:45;101561.22;;;23.88;36.61
33075;BME280;19433;51.292;6.868;2022-08-06T12:57:24;101554.66;;;24.36;42.79
33075;BME280;19433;51.292;6.868;2022-08-06T12:59:52;101543.47;;;24.94;36.28
33075;BME280;19433;51.292;6.868;2022-08-06T13:02:19;101545.16;;;25.47;33.74
33075;BME280;19433;51.292;6.868;2022-08-06T13:04:50;101542.78;;;26.32;34.62
33075;BME280;19433;51.292;6.868;2022-08-06T13:07:17;101541.59;;;26.83;32.00
33075;BME280;19433;51.292;6.868;2022-08-06T13:09:44;101544.09;;;27.15;30.71
33075;BME280;19433;51.292;6.868;2022-08-06T13:12:19;101557.78;;;26.62;28.66
33075;BME280;19433;51.292;6.868;2022-08-06T13:14:55;101548.41;;;26.87;33.01
33075;BME280;19433;51.292;6.868;2022-08-06T13:17:25;101545.63;;;26.57;31.33
33075;BME280;19433;51.292;6.868;2022-08-06T13:19:57;101543.63;;;26.07;30.88
33075;BME280;19433;51.292;6.868;2022-08-06T13:22:25;101546.28;;;25.46;31.30
33075;BME280;19433;51.292;6.868;2022-08-06T13:25:11;101539.59;;;25.10;32.45
33075;BME280;19433;51.292;6.868;2022-08-06T13:27:37;101534.84;;;25.15;34.69
33075;BME280;19433;51.292;6.868;2022-08-06T13:30:07;101533.41;;;25.13;35.98
33075;BME280;19433;51.292;6.868;2022-08-06T13:32:33;101531.41;;;25.08;30.71
33075;BME280;19433;51.292;6.868;2022-08-06T13:35:04;101526.66;;;24.72;33.15
33075;BME280;19433;51.292;6.868;2022-08-06T13:37:47;101528.94;;;25.27;33.06
33075;BME280;19433;51.292;6.868;2022-08-06T13:40:14;101522.50;;;25.52;33.97
33075;BME280;19433;51.292;6.868;2022-08-06T13:42:53;101525.94;;;25.59;34.37
33075;BME280;19433;51.292;6.868;2022-08-06T13:45:24;101522.88;;;25.66;34.06
33075;BME280;19433;51.292;6.868;2022-08-06T13:48:00;101524.91;;;25.90;35.72
33075;BME280;19433;51.292;6.868;2022-08-06T13:50:26;101513.28;;;25.77;33.31
33075;BME280;19433;51.292;6.868;2022-08-06T13:52:51;101524.06;;;26.05;34.21
